Coldstream, Australia
Current Conditions -  °F | °C
As of 2:00 PM on Friday 28 Nov 2014 (Local Time) from YMEN Reporting Station
Clear Clear  
Wind Chill: 68°   Ceiling: Unl
Heat Index: 68°   Visibility: 6mi
Dew Point: 54°   Wind: 9mph
Humidity: 60%   Direction: 170°S
Pressure: 30.15"   Gusts: NA
Location:  37.72°S, 145.38°E
Report Text: YMEN 280300Z AUTO 17008KT 150V210 9999 // NCD 20/12 Q1021
Loading
Personal Weather Stations






























Interactive Weather Map New forecast layout! Learn more

10-Day Weather Forecast

Advertisements
Track Severe Weather on mobile